In Rescue
 
Open Full Screen Window  High Contrast Mode
Wind Gusting 16 knots
13
June 22, 2024 7:44 PM CDT
Weather Information
Wind Direction
  330 °
Wind Speed
  13 kt (15 mph)
Wind Gust
  16 kt (18 mph)
Altimeter
29.84 in
Visibility
10 SM
Temperature
22° C
72° F
Dewpoint
18° C
64° F
Humidity
78%
Sky Condition
Missing
VFR

METAR KMJQ 230044Z AUTO 33013G16KT 10SM 22/18 A2984 RMK AO2

FAA Disclaimer: The data displayed is for advisory purposes only and is not to be used for flight planning or operations.
Missing Cloud Data